Time;durP1;ratioP1;P1;durP2;ratioP2;P2;SDS_P1;SDS_P2;PMS_P1;PMS_P2;Temp;Humidity;BMP_temperature;BMP_pressure;BME280_temperature;BME280_humidity;BME280_pressure;Samples;Min_cycle;Max_cycle;Signal;HPM_P1;HPM_P2
2023/10/13 00:00:29;;;;;;;4.60;3.70;;;;;;;14.12;100.00;96888.47;5061704;28;20195;-55
2023/10/13 00:02:59;;;;;;;5.70;3.80;;;;;;;14.08;100.00;96887.13;5061656;28;20230;-53
2023/10/13 00:05:27;;;;;;;6.55;3.58;;;;;;;14.10;100.00;96886.97;5061326;28;20239;-54
2023/10/13 00:07:54;;;;;;;4.68;3.33;;;;;;;14.11;100.00;96883.28;5061778;28;20210;-54
2023/10/13 00:10:21;;;;;;;7.18;3.78;;;;;;;14.04;100.00;96883.09;5061773;28;20577;-54
2023/10/13 00:12:49;;;;;;;5.00;3.28;;;;;;;14.08;100.00;96889.78;5061752;28;20302;-52
2023/10/13 00:15:20;;;;;;;8.00;3.72;;;;;;;14.09;100.00;96879.97;5061895;28;20233;-53
2023/10/13 00:17:47;;;;;;;5.90;3.80;;;;;;;14.07;100.00;96871.31;5062050;28;20252;-54
2023/10/13 00:20:16;;;;;;;4.13;3.72;;;;;;;13.94;100.00;96869.94;5062070;28;20203;-54
2023/10/13 00:22:44;;;;;;;3.53;3.22;;;;;;;13.93;100.00;96873.56;5061811;28;20686;-54
2023/10/13 00:25:19;;;;;;;4.70;3.30;;;;;;;13.95;100.00;96868.09;5061925;28;20252;-54
2023/10/13 00:27:48;;;;;;;3.70;3.30;;;;;;;13.90;100.00;96873.88;5061675;28;20213;-52
2023/10/13 00:30:21;;;;;;;4.03;3.42;;;;;;;13.85;100.00;96873.50;5061870;28;20195;-53
2023/10/13 00:32:54;;;;;;;4.82;3.15;;;;;;;13.85;100.00;96884.16;5061240;28;20298;-54
2023/10/13 00:35:26;;;;;;;4.95;3.05;;;;;;;13.84;100.00;96871.88;5061317;28;20868;-55
2023/10/13 00:37:54;;;;;;;5.63;3.10;;;;;;;13.84;100.00;96877.19;5061332;28;20599;-54
2023/10/13 00:40:41;;;;;;;3.58;2.95;;;;;;;13.86;100.00;96875.19;5061171;28;20253;-52
2023/10/13 00:45:56;;;;;;;4.50;3.10;;;;;;;13.77;100.00;96868.19;5061040;28;20516;-54
2023/10/13 00:48:28;;;;;;;3.20;2.90;;;;;;;13.75;100.00;96867.47;5061213;28;20272;-54
2023/10/13 00:50:56;;;;;;;3.83;3.10;;;;;;;13.74;100.00;96863.19;5061144;28;20289;-54
2023/10/13 00:53:25;;;;;;;8.50;3.55;;;;;;;13.74;100.00;96867.66;5061334;28;20229;-55
2023/10/13 00:55:50;;;;;;;4.85;3.42;;;;;;;13.72;100.00;96862.47;5061691;28;20353;-54
2023/10/13 00:58:21;;;;;;;4.47;3.33;;;;;;;13.64;100.00;96865.09;5061446;28;20690;-54
2023/10/13 01:00:55;;;;;;;4.53;3.10;;;;;;;13.64;100.00;96862.44;5061585;28;20557;-53
2023/10/13 01:03:26;;;;;;;6.53;3.13;;;;;;;13.65;100.00;96871.22;5061307;28;20200;-52
2023/10/13 01:05:54;;;;;;;5.10;3.08;;;;;;;13.62;100.00;96864.41;5060763;28;20191;-53
2023/10/13 01:08:34;;;;;;;3.25;2.72;;;;;;;13.61;100.00;96868.06;5061396;28;20286;-54
2023/10/13 01:10:59;;;;;;;4.72;3.50;;;;;;;13.61;100.00;96860.09;5060730;28;20682;-53
2023/10/13 01:13:30;;;;;;;5.18;3.30;;;;;;;13.59;100.00;96867.41;5061019;28;20218;-51
2023/10/13 01:15:56;;;;;;;3.80;3.05;;;;;;;13.49;100.00;96864.00;5061413;28;20221;-53
2023/10/13 01:18:28;;;;;;;5.17;3.20;;;;;;;13.41;100.00;96861.28;5059966;28;20195;-54
2023/10/13 01:20:57;;;;;;;6.20;3.13;;;;;;;13.39;100.00;96858.78;5060252;28;20202;-54
2023/10/13 01:23:28;;;;;;;5.13;3.30;;;;;;;13.36;100.00;96859.09;5060574;28;20242;-54
2023/10/13 01:25:54;;;;;;;4.70;3.28;;;;;;;13.38;100.00;96853.63;5061083;28;20240;-54
2023/10/13 01:28:21;;;;;;;5.82;3.30;;;;;;;13.32;100.00;96854.25;5061073;28;20198;-54
2023/10/13 01:30:50;;;;;;;4.53;3.10;;;;;;;13.28;100.00;96850.25;5061125;28;20275;-54
2023/10/13 01:33:16;;;;;;;5.43;3.30;;;;;;;13.24;100.00;96852.38;5061997;28;20228;-53
2023/10/13 01:35:47;;;;;;;5.93;3.30;;;;;;;13.21;100.00;96857.16;5062845;28;20229;-54
2023/10/13 01:38:14;;;;;;;3.10;2.80;;;;;;;13.18;100.00;96857.47;5065557;28;20194;-54
2023/10/13 01:40:42;;;;;;;5.97;3.47;;;;;;;13.17;100.00;96847.81;5063663;28;20202;-54
2023/10/13 01:43:10;;;;;;;4.93;2.93;;;;;;;13.11;100.00;96851.91;5061005;28;20239;-54
2023/10/13 01:45:39;;;;;;;7.07;3.40;;;;;;;13.07;100.00;96845.22;5061393;28;20268;-54
2023/10/13 01:48:08;;;;;;;4.40;3.43;;;;;;;13.12;100.00;96839.47;5061132;28;20203;-52
2023/10/13 01:50:36;;;;;;;6.90;3.10;;;;;;;13.03;100.00;96838.56;5060690;28;20209;-53
2023/10/13 01:53:11;;;;;;;5.57;3.40;;;;;;;13.04;100.00;96842.84;5063112;28;20580;-53
2023/10/13 01:55:42;;;;;;;4.70;3.30;;;;;;;13.07;100.00;96837.28;5064742;28;20264;-53
2023/10/13 01:58:14;;;;;;;5.67;3.37;;;;;;;13.05;100.00;96839.22;5065208;28;20195;-53
2023/10/13 02:00:41;;;;;;;5.60;3.47;;;;;;;12.95;100.00;96833.16;5065103;28;20225;-53
2023/10/13 02:03:14;;;;;;;7.23;3.43;;;;;;;12.95;100.00;96835.81;5064835;28;20215;-54
2023/10/13 02:05:44;;;;;;;4.70;3.10;;;;;;;12.95;100.00;96836.66;5064194;28;20199;-55
2023/10/13 02:08:11;;;;;;;4.43;3.27;;;;;;;12.89;100.00;96831.94;5063920;28;20213;-54
2023/10/13 02:10:43;;;;;;;4.60;3.10;;;;;;;12.89;100.00;96834.59;5063656;28;20230;-54
2023/10/13 02:13:17;;;;;;;6.30;3.20;;;;;;;12.92;100.00;96836.97;5064366;28;20201;-52
2023/10/13 02:15:44;;;;;;;3.93;3.33;;;;;;;12.86;100.00;96842.88;5064342;28;20206;-54
2023/10/13 02:18:10;;;;;;;3.13;2.83;;;;;;;12.83;100.00;96835.22;5064066;28;20221;-51
2023/10/13 02:20:42;;;;;;;4.67;3.20;;;;;;;12.84;100.00;96844.84;5065027;28;20209;-52
2023/10/13 02:23:10;;;;;;;5.87;2.80;;;;;;;12.79;100.00;96839.16;5065274;28;20191;-52
2023/10/13 02:25:42;;;;;;;6.40;3.33;;;;;;;12.78;100.00;96837.50;5064482;28;20205;-54
2023/10/13 02:28:13;;;;;;;3.47;3.17;;;;;;;12.74;100.00;96836.16;5064092;28;20257;-52
2023/10/13 02:30:44;;;;;;;6.20;3.03;;;;;;;12.75;100.00;96840.44;5064190;28;20210;-52
2023/10/13 02:33:11;;;;;;;6.33;3.10;;;;;;;12.73;100.00;96841.59;5063672;28;20264;-54
2023/10/13 02:35:46;;;;;;;7.10;3.20;;;;;;;12.69;100.00;96838.41;5064063;28;20323;-53
2023/10/13 02:38:12;;;;;;;3.43;3.13;;;;;;;12.71;100.00;96836.44;5064070;28;20212;-53
2023/10/13 02:40:39;;;;;;;3.97;3.07;;;;;;;12.69;100.00;96838.41;5062476;28;20203;-51
2023/10/13 02:43:05;;;;;;;5.43;3.50;;;;;;;12.69;100.00;96841.06;5064226;28;20203;-54
2023/10/13 02:45:36;;;;;;;5.37;3.13;;;;;;;12.70;100.00;96826.81;5063508;28;20199;-54
2023/10/13 02:48:12;;;;;;;6.60;3.23;;;;;;;12.75;100.00;96834.31;5063693;28;20206;-52
2023/10/13 02:50:43;;;;;;;4.20;3.60;;;;;;;12.73;100.00;96837.13;5063734;28;20205;-54
2023/10/13 02:53:12;;;;;;;3.13;2.60;;;;;;;12.72;100.00;96830.13;5063979;28;20199;-52
2023/10/13 02:55:42;;;;;;;4.53;3.00;;;;;;;12.73;100.00;96826.50;5063412;28;20243;-54
2023/10/13 02:58:08;;;;;;;5.27;3.47;;;;;;;12.73;100.00;96829.16;5064351;28;20199;-53
2023/10/13 03:00:40;;;;;;;4.57;3.33;;;;;;;12.69;100.00;96821.66;5063808;28;20199;-54
2023/10/13 03:03:06;;;;;;;5.53;3.40;;;;;;;12.68;100.00;96825.31;5062884;28;20655;-53
2023/10/13 03:05:38;;;;;;;4.77;2.97;;;;;;;12.66;100.00;96828.09;5064288;28;20283;-54
2023/10/13 03:08:04;;;;;;;6.10;3.13;;;;;;;12.65;100.00;96822.94;5064919;28;20551;-54
2023/10/13 03:10:32;;;;;;;5.10;2.90;;;;;;;12.67;100.00;96820.97;5063895;28;20234;-54
2023/10/13 03:12:59;;;;;;;3.60;3.13;;;;;;;12.65;100.00;96818.47;5063860;28;20561;-53
2023/10/13 03:15:30;;;;;;;4.63;2.97;;;;;;;12.61;100.00;96825.06;5063855;28;20231;-52
2023/10/13 03:17:59;;;;;;;3.63;3.00;;;;;;;12.54;100.00;96831.13;5064023;28;20195;-52
2023/10/13 03:20:31;;;;;;;4.23;3.23;;;;;;;12.53;100.00;96825.00;5063305;28;20222;-53
2023/10/13 03:22:57;;;;;;;4.07;3.13;;;;;;;12.54;100.00;96825.84;5062611;28;20259;-53
2023/10/13 03:25:29;;;;;;;4.67;2.80;;;;;;;12.52;100.00;96822.47;5062865;28;20294;-54
2023/10/13 03:28:01;;;;;;;3.97;3.03;;;;;;;12.49;100.00;96820.97;5063020;28;20210;-51
2023/10/13 03:30:35;;;;;;;4.57;2.97;;;;;;;12.44;100.00;96820.56;5063668;28;20198;-54
2023/10/13 03:33:06;;;;;;;8.00;3.20;;;;;;;12.44;100.00;96820.56;5063898;28;20550;-54
2023/10/13 03:35:39;;;;;;;3.63;3.10;;;;;;;12.38;100.00;96811.41;5063023;28;20697;-53
2023/10/13 03:38:11;;;;;;;4.87;3.30;;;;;;;12.39;100.00;96806.94;5063239;28;20217;-52
2023/10/13 03:40:39;;;;;;;6.60;3.67;;;;;;;12.39;100.00;96806.94;5063591;28;20199;-52
2023/10/13 03:43:08;;;;;;;4.20;3.50;;;;;;;12.38;100.00;96794.66;5062947;28;20629;-53
2023/10/13 03:45:38;;;;;;;4.50;3.10;;;;;;;12.39;100.00;96796.34;5063591;28;20206;-54
2023/10/13 03:48:09;;;;;;;4.90;3.60;;;;;;;12.40;100.00;96800.63;5068098;28;20198;-55
2023/10/13 03:50:37;;;;;;;5.10;3.80;;;;;;;12.34;100.00;96794.13;5068083;28;20198;-55
2023/10/13 03:53:06;;;;;;;6.33;3.60;;;;;;;12.34;100.00;96793.28;5064053;28;20583;-54
2023/10/13 03:55:35;;;;;;;4.07;3.30;;;;;;;12.33;100.00;96788.97;5060834;28;20239;-53
2023/10/13 03:58:03;;;;;;;5.80;3.60;;;;;;;12.34;100.00;96790.63;5062339;28;20203;-54
2023/10/13 04:00:31;;;;;;;5.53;3.50;;;;;;;12.33;100.00;96789.78;5062585;28;20203;-52
2023/10/13 04:03:09;;;;;;;7.73;3.03;;;;;;;12.32;100.00;96793.44;5060433;28;20210;-52
2023/10/13 04:05:45;;;;;;;3.33;3.03;;;;;;;12.37;100.00;96785.88;5061914;28;20194;-54
2023/10/13 04:16:37;;;;;;;3.93;3.50;;;;;;;12.26;100.00;96777.28;5061050;28;20225;-54
2023/10/13 04:19:19;;;;;;;4.83;3.30;;;;;;;12.24;100.00;96781.91;5062112;28;20206;-54
2023/10/13 04:21:57;;;;;;;6.00;3.40;;;;;;;12.28;100.00;96772.69;5062444;28;20202;-54
2023/10/13 04:24:38;;;;;;;4.83;3.40;;;;;;;12.31;100.00;96775.03;5061945;28;20209;-54
2023/10/13 04:27:29;;;;;;;5.00;3.50;;;;;;;12.26;100.00;96771.97;5061629;28;20202;-53
2023/10/13 04:30:10;;;;;;;6.50;3.80;;;;;;;12.23;100.00;96772.28;5061907;28;20199;-51
2023/10/13 04:32:41;;;;;;;7.83;3.60;;;;;;;12.18;100.00;96766.63;5062413;28;20202;-54
2023/10/13 04:35:18;;;;;;;5.50;3.77;;;;;;;12.16;100.00;96776.50;5061066;28;20218;-54
2023/10/13 04:37:54;;;;;;;5.70;3.40;;;;;;;12.20;100.00;96769.94;5061754;28;20221;-53
2023/10/13 04:40:24;;;;;;;6.90;3.50;;;;;;;12.17;100.00;96768.44;5065448;28;20205;-54
2023/10/13 04:42:53;;;;;;;4.80;3.60;;;;;;;12.19;100.00;96766.44;5069433;28;20594;-54
2023/10/13 04:48:17;;;;;;;6.37;3.40;;;;;;;12.15;100.00;96761.63;5058121;28;20269;-54
2023/10/13 04:50:45;;;;;;;7.73;3.67;;;;;;;12.13;100.00;96760.91;5062708;28;20199;-54
2023/10/13 04:53:27;;;;;;;6.70;3.60;;;;;;;12.15;100.00;96761.63;5061115;28;20206;-54
2023/10/13 05:02:31;;;;;;;5.07;3.33;;;;;;;12.17;100.00;96755.19;5060564;28;20203;-52
2023/10/13 05:05:02;;;;;;;4.53;3.10;;;;;;;12.15;100.00;96753.66;5060457;28;20930;-54
2023/10/13 05:49:09;;;;;;;5.73;3.80;;;;;;;11.85;100.00;96771.56;5063853;28;20670;-54
2023/10/13 05:51:47;;;;;;;4.90;3.60;;;;;;;11.83;100.00;96778.78;5064535;28;20268;-53
2023/10/13 06:30:03;;;;;;;5.10;3.27;;;;;;;12.05;100.00;96782.88;5064673;28;20646;-52
2023/10/13 06:32:32;;;;;;;3.80;3.40;;;;;;;12.10;100.00;96785.06;5066758;28;20276;-54
2023/10/13 06:35:05;;;;;;;6.63;3.90;;;;;;;12.15;100.00;96774.88;5064909;28;20195;-53
2023/10/13 06:37:32;;;;;;;6.13;3.00;;;;;;;12.20;100.00;96780.53;5067685;28;20651;-55
2023/10/13 06:40:06;;;;;;;4.83;3.33;;;;;;;12.22;100.00;96786.53;5068491;28;20198;-53
2023/10/13 06:42:34;;;;;;;6.77;3.60;;;;;;;12.22;100.00;96786.53;5065221;28;20198;-54
2023/10/13 06:45:08;;;;;;;6.30;3.73;;;;;;;12.29;100.00;96785.78;5065464;28;20261;-52
2023/10/13 06:47:39;;;;;;;4.03;3.60;;;;;;;12.35;100.00;96790.50;5067952;28;20264;-54
2023/10/13 06:50:15;;;;;;;4.33;3.60;;;;;;;12.45;100.00;96795.72;5067011;28;20226;-54
2023/10/13 06:52:41;;;;;;;6.47;4.03;;;;;;;12.58;100.00;96795.34;5068067;28;20198;-54
2023/10/13 06:55:10;;;;;;;7.27;3.70;;;;;;;12.64;100.00;96798.25;5066534;28;20202;-52
2023/10/13 06:57:42;;;;;;;7.80;4.07;;;;;;;12.76;100.00;96793.50;5065659;28;20211;-54
2023/10/13 07:00:19;;;;;;;7.63;4.00;;;;;;;12.81;100.00;96797.41;5062725;28;20689;-52
2023/10/13 07:02:47;;;;;;;9.27;4.43;;;;;;;12.87;100.00;96790.63;5063518;28;20198;-52
2023/10/13 07:05:14;;;;;;;7.97;4.67;;;;;;;12.94;100.00;96792.53;5063121;28;20536;-53
2023/10/13 07:07:40;;;;;;;5.47;3.83;;;;;;;12.98;100.00;96791.22;5063717;28;20796;-54
2023/10/13 07:10:09;;;;;;;5.33;4.53;;;;;;;13.05;100.00;96794.09;5062611;28;20299;-54
2023/10/13 07:12:37;;;;;;;4.37;3.83;;;;;;;13.11;100.00;96793.50;5063848;28;20532;-52
2023/10/13 07:15:05;;;;;;;5.43;4.13;;;;;;;13.21;100.00;96798.72;5063191;28;20207;-54
2023/10/13 07:17:39;;;;;;;7.77;4.17;;;;;;;13.34;100.00;96799.97;5063394;28;20203;-53
2023/10/13 07:20:15;;;;;;;6.13;4.13;;;;;;;13.48;100.00;96801.22;5063532;28;20299;-54
2023/10/13 07:22:45;;;;;;;7.13;4.10;;;;;;;13.59;100.00;96800.97;5063247;28;20207;-51
2023/10/13 07:25:23;;;;;;;7.17;4.40;;;;;;;13.67;100.00;96809.00;5064372;28;20218;-54
2023/10/13 07:27:50;;;;;;;8.85;4.32;;;;;;;13.75;100.00;96809.00;5064166;28;20199;-52
2023/10/13 07:30:19;;;;;;;5.72;4.57;;;;;;;13.82;100.00;96810.03;5064226;28;20203;-54
2023/10/13 07:32:46;;;;;;;5.77;4.13;;;;;;;13.93;100.00;96812.41;5063357;28;20655;-51
2023/10/13 07:35:17;;;;;;;4.80;4.38;;;;;;;14.01;100.00;96797.50;5062553;28;20198;-54
2023/10/13 07:37:44;;;;;;;8.93;4.47;;;;;;;14.10;100.00;96804.53;5062940;28;20214;-53
2023/10/13 07:40:39;;;;;;;7.43;4.67;;;;;;;14.18;100.00;96809.84;5062325;28;20255;-54
2023/10/13 07:43:09;;;;;;;6.10;4.18;;;;;;;14.29;100.00;96806.91;5062966;28;20206;-51
2023/10/13 07:45:37;;;;;;;7.57;4.65;;;;;;;14.37;100.00;96804.31;5062437;28;20199;-52
2023/10/13 07:48:11;;;;;;;10.07;4.72;;;;;;;14.46;100.00;96808.63;5062365;28;20279;-54
2023/10/13 07:50:40;;;;;;;7.10;4.32;;;;;;;14.56;100.00;96803.19;5061393;28;20742;-52
2023/10/13 07:53:18;;;;;;;9.57;4.38;;;;;;;14.65;100.00;96808.34;5062683;28;20210;-53
2023/10/13 07:55:46;;;;;;;9.93;4.25;;;;;;;14.77;100.00;96806.22;5063072;28;20221;-54
2023/10/13 07:58:13;;;;;;;9.80;4.47;;;;;;;14.88;100.00;96804.03;5062952;28;20547;-53
2023/10/13 08:00:47;;;;;;;9.18;4.53;;;;;;;14.97;100.00;96804.88;5062869;28;20207;-51
2023/10/13 08:03:31;;;;;;;8.38;4.60;;;;;;;15.08;100.00;96803.72;5062914;28;20203;-52
2023/10/13 08:06:04;;;;;;;9.77;4.55;;;;;;;15.19;100.00;96800.72;5062739;28;20203;-52
2023/10/13 08:08:35;;;;;;;4.95;3.60;;;;;;;15.32;100.00;96801.03;5062512;28;20644;-52
2023/10/13 08:11:08;;;;;;;5.95;4.30;;;;;;;15.42;100.00;96801.69;5062207;28;20238;-52
2023/10/13 08:13:37;;;;;;;7.45;5.20;;;;;;;15.52;100.00;96797.03;5062406;28;20198;-54
2023/10/13 08:16:07;;;;;;;6.63;4.85;;;;;;;15.64;100.00;96795.69;5062208;28;20679;-54
2023/10/13 08:18:35;;;;;;;8.52;4.82;;;;;;;15.76;100.00;96804.16;5064088;28;20903;-54
2023/10/13 08:21:04;;;;;;;8.02;4.60;;;;;;;15.87;100.00;96790.44;5064763;28;20696;-52
2023/10/13 08:23:57;;;;;;;8.18;4.80;;;;;;;15.99;100.00;96788.22;5062208;28;20211;-52
2023/10/13 08:29:51;;;;;;;6.30;3.78;;;;;;;16.29;100.00;96776.75;5059510;28;20658;-52
2023/10/13 08:32:14;;;;;;;7.22;4.00;;;;;;;16.46;100.00;96778.31;5061426;28;20289;-54
2023/10/13 08:35:09;;;;;;;5.93;3.72;;;;;;;16.60;100.00;96771.41;5061889;28;20202;-53
2023/10/13 08:37:33;;;;;;;4.22;3.60;;;;;;;16.82;100.00;96779.44;5061935;28;20226;-52
2023/10/13 08:42:52;;;;;;;6.88;3.58;;;;;;;17.14;100.00;96772.16;5062157;28;20213;-52
2023/10/13 08:45:53;;;;;;;9.20;3.78;;;;;;;17.27;100.00;96769.69;5061850;28;20198;-52
2023/10/13 08:48:12;;;;;;;8.13;4.20;;;;;;;17.45;100.00;96764.84;5061597;28;20206;-51
2023/10/13 08:50:52;;;;;;;5.15;3.63;;;;;;;17.62;95.74;96771.72;5061420;28;20222;-51
2023/10/13 08:53:28;;;;;;;7.88;4.20;;;;;;;17.81;95.81;96768.50;5062146;28;20206;-51
2023/10/13 08:56:05;;;;;;;6.00;4.10;;;;;;;18.01;97.72;96757.22;5061227;28;20198;-54
2023/10/13 09:01:13;;;;;;;11.10;3.65;;;;;;;18.50;92.39;96750.19;5061178;28;20198;-54
2023/10/13 09:03:40;;;;;;;10.90;3.70;;;;;;;18.83;94.49;96751.41;5061538;28;20285;-52
2023/10/13 09:06:10;;;;;;;9.50;3.83;;;;;;;19.08;94.51;96748.31;5061405;28;20211;-53
2023/10/13 09:09:03;;;;;;;4.13;3.22;;;;;;;19.35;95.11;96747.50;5061487;28;20352;-53
2023/10/13 09:11:43;;;;;;;7.70;3.70;;;;;;;19.57;84.82;96750.97;5060560;28;20579;-53
2023/10/13 09:14:32;;;;;;;5.85;3.42;;;;;;;19.84;84.07;96736.69;5061362;28;20198;-53
2023/10/13 09:17:09;;;;;;;4.05;3.28;;;;;;;20.17;80.66;96747.59;5061239;28;20296;-52
2023/10/13 09:19:46;;;;;;;9.02;3.20;;;;;;;20.39;79.16;96746.47;5060619;28;20202;-54
2023/10/13 09:22:25;;;;;;;8.07;3.58;;;;;;;20.68;82.32;96745.31;5061973;28;20194;-53
2023/10/13 09:24:58;;;;;;;8.35;3.55;;;;;;;20.95;77.04;96740.81;5061609;28;20636;-52
2023/10/13 09:27:27;;;;;;;5.50;3.55;;;;;;;21.25;76.88;96744.81;5062088;28;20512;-53
2023/10/13 09:29:56;;;;;;;7.75;3.22;;;;;;;21.45;73.60;96734.84;5061349;28;21553;-53
2023/10/13 09:32:23;;;;;;;5.22;3.55;;;;;;;21.69;71.43;96736.88;5060969;28;20199;-52
2023/10/13 09:34:51;;;;;;;4.07;3.25;;;;;;;22.09;72.07;96734.09;5061280;28;20226;-52
2023/10/13 09:37:20;;;;;;;5.57;3.10;;;;;;;22.38;72.14;96727.34;5061322;28;20222;-53
2023/10/13 09:39:51;;;;;;;3.65;3.08;;;;;;;22.47;67.78;96717.97;5060931;28;20210;-52
2023/10/13 09:42:23;;;;;;;5.63;3.30;;;;;;;22.67;67.13;96714.16;5061456;28;20195;-53
2023/10/13 09:44:51;;;;;;;7.15;3.05;;;;;;;23.10;64.41;96718.81;5061474;28;20286;-53
2023/10/13 09:47:29;;;;;;;6.70;2.90;;;;;;;23.03;63.86;96709.97;5060428;28;20653;-53
2023/10/13 09:50:05;;;;;;;7.10;3.40;;;;;;;23.27;61.08;96711.88;5061112;28;20236;-53
2023/10/13 09:52:32;;;;;;;7.30;3.10;;;;;;;23.61;60.46;96711.34;5060937;28;20631;-55
2023/10/13 09:55:13;;;;;;;7.18;3.03;;;;;;;23.86;60.63;96705.06;5060626;28;20210;-54
2023/10/13 09:57:48;;;;;;;5.68;3.30;;;;;;;23.94;61.24;96696.69;5060782;28;20268;-54
2023/10/13 10:00:46;;;;;;;8.90;2.92;;;;;;;24.31;52.38;96703.72;5060906;28;20203;-54
2023/10/13 10:03:29;;;;;;;3.20;2.78;;;;;;;24.61;55.38;96698.34;5061824;28;20188;-53
2023/10/13 10:06:03;;;;;;;6.55;2.90;;;;;;;24.69;51.63;96692.63;5073632;28;20207;-53
2023/10/13 10:08:33;;;;;;;6.22;2.83;;;;;;;24.94;53.26;96693.28;5067416;28;20234;-54
2023/10/13 10:11:04;;;;;;;5.65;2.50;;;;;;;25.23;53.18;96681.56;5068819;28;20249;-53
2023/10/13 10:13:38;;;;;;;8.77;3.00;;;;;;;25.16;52.78;96680.84;5067802;28;20203;-52
2023/10/13 10:16:14;;;;;;;4.95;3.10;;;;;;;25.16;51.94;96680.84;5066230;28;20199;-53
2023/10/13 10:18:41;;;;;;;3.92;2.50;;;;;;;25.44;52.09;96676.63;5066135;28;20194;-53
2023/10/13 10:21:08;;;;;;;5.22;2.95;;;;;;;25.59;50.07;96675.13;5067645;28;20210;-53
2023/10/13 10:23:39;;;;;;;4.93;2.95;;;;;;;25.93;49.99;96664.50;5065727;28;20343;-54
2023/10/13 10:26:13;;;;;;;6.45;2.95;;;;;;;26.51;50.95;96667.84;5064703;28;20577;-53
2023/10/13 10:28:42;;;;;;;4.57;2.90;;;;;;;26.50;50.21;96666.22;5065880;28;20193;-53
2023/10/13 10:31:12;;;;;;;4.68;2.78;;;;;;;26.66;48.19;96662.72;5067373;28;20260;-53
2023/10/13 10:33:39;;;;;;;4.85;2.63;;;;;;;27.17;47.16;96664.44;5071513;28;20257;-52
2023/10/13 10:36:06;;;;;;;6.53;3.08;;;;;;;27.58;46.37;96663.22;5071329;28;20210;-53
2023/10/13 10:38:37;;;;;;;6.63;3.15;;;;;;;27.89;42.44;96655.47;5071587;28;20210;-53
2023/10/13 10:41:06;;;;;;;3.70;3.10;;;;;;;28.22;42.61;96654.56;5069443;28;20530;-54
2023/10/13 10:43:42;;;;;;;5.03;3.03;;;;;;;28.47;44.67;96646.69;5067503;28;20202;-54
2023/10/13 10:46:11;;;;;;;8.35;3.25;;;;;;;28.90;42.87;96649.34;5067408;28;20537;-52
2023/10/13 10:48:42;;;;;;;3.28;2.78;;;;;;;29.14;41.72;96638.91;5067336;28;21398;-53
2023/10/13 10:51:15;;;;;;;6.82;3.20;;;;;;;29.02;42.11;96636.38;5067605;28;20199;-53
2023/10/13 10:53:46;;;;;;;6.75;3.00;;;;;;;28.85;41.56;96635.69;5067191;28;20265;-55
2023/10/13 10:56:24;;;;;;;5.97;2.55;;;;;;;29.25;42.08;96629.75;5066977;28;20264;-53
2023/10/13 10:58:54;;;;;;;8.20;3.17;;;;;;;29.61;42.92;96634.38;5064083;28;20209;-54
2023/10/13 11:01:23;;;;;;;3.80;2.92;;;;;;;29.41;40.10;96622.50;5063967;28;20195;-54
2023/10/13 11:04:07;;;;;;;7.93;3.00;;;;;;;29.54;38.54;96622.91;5064055;28;20208;-53
2023/10/13 11:06:38;;;;;;;4.40;2.58;;;;;;;29.31;38.72;96617.81;5063608;28;20634;-54
2023/10/13 11:09:18;;;;;;;7.45;2.60;;;;;;;29.83;37.29;96614.34;5064301;28;20584;-54
2023/10/13 11:11:46;;;;;;;4.07;2.58;;;;;;;29.95;36.84;96604.03;5063636;28;20194;-53
2023/10/13 11:14:23;;;;;;;4.30;2.92;;;;;;;29.77;38.09;96605.28;5063970;28;20211;-53
2023/10/13 11:16:53;;;;;;;4.72;3.00;;;;;;;29.98;36.68;96595.31;5063902;28;20236;-54
2023/10/13 11:19:25;;;;;;;5.72;2.85;;;;;;;30.25;38.55;96595.16;5062824;28;20836;-53
2023/10/13 11:21:52;;;;;;;5.35;3.00;;;;;;;30.26;36.35;96589.41;5063665;28;20226;-54
2023/10/13 11:24:21;;;;;;;6.93;3.05;;;;;;;30.39;35.90;96586.19;5062964;28;20291;-53
2023/10/13 11:26:52;;;;;;;3.50;2.95;;;;;;;30.43;36.18;96581.84;5063639;28;20195;-53
2023/10/13 11:29:19;;;;;;;5.55;2.95;;;;;;;30.21;35.89;96575.78;5063196;28;20232;-52
2023/10/13 11:31:50;;;;;;;4.57;2.70;;;;;;;30.46;38.53;96570.41;5063350;28;20202;-53
2023/10/13 11:34:18;;;;;;;6.03;2.80;;;;;;;30.08;36.46;96568.09;5063238;28;20207;-54
2023/10/13 11:36:45;;;;;;;6.70;3.20;;;;;;;29.71;36.03;96564.66;5062834;28;20281;-54
2023/10/13 11:39:17;;;;;;;5.70;2.83;;;;;;;29.70;35.97;96563.00;5062378;28;20543;-53
2023/10/13 11:41:50;;;;;;;4.68;3.00;;;;;;;29.41;37.00;96549.78;5063149;28;20211;-53
2023/10/13 11:44:26;;;;;;;4.93;3.22;;;;;;;29.22;38.30;96559.44;5063286;28;20203;-53
2023/10/13 11:49:40;;;;;;;4.50;3.22;;;;;;;28.65;41.05;96548.38;5032418;28;20225;-54
2023/10/13 11:52:15;;;;;;;7.18;3.10;;;;;;;28.69;39.21;96544.09;5062546;28;20202;-54
2023/10/13 11:54:42;;;;;;;5.35;2.85;;;;;;;28.28;37.89;96539.31;5062365;28;20544;-53
2023/10/13 11:57:09;;;;;;;4.75;2.85;;;;;;;27.99;40.35;96533.25;5062639;28;20243;-53
2023/10/13 11:59:41;;;;;;;5.22;3.08;;;;;;;28.02;40.99;96530.06;5062470;28;20212;-53
2023/10/13 12:04:54;;;;;;;6.35;3.00;;;;;;;27.68;43.28;96523.94;5061773;28;20551;-52
2023/10/13 12:07:23;;;;;;;4.20;2.80;;;;;;;27.29;42.76;96523.16;5062551;28;20198;-52
2023/10/13 12:10:06;;;;;;;5.65;2.85;;;;;;;27.31;43.72;96512.88;5062073;28;20239;-53
2023/10/13 12:12:40;;;;;;;5.28;2.60;;;;;;;26.96;43.76;96506.94;5061849;28;20534;-53
2023/10/13 12:15:13;;;;;;;4.80;2.75;;;;;;;26.93;45.41;96499.28;5062497;28;20230;-54
2023/10/13 12:17:44;;;;;;;6.70;3.17;;;;;;;26.76;41.88;96496.56;5061872;28;20674;-53
2023/10/13 12:20:18;;;;;;;5.72;2.65;;;;;;;26.77;44.60;96500.09;5061644;28;20636;-53
2023/10/13 12:22:54;;;;;;;4.38;3.08;;;;;;;26.78;43.60;96494.44;5062287;28;20198;-54
2023/10/13 12:25:25;;;;;;;6.30;3.05;;;;;;;26.85;46.92;96495.13;5062080;28;20210;-53
2023/10/13 12:27:56;;;;;;;5.00;3.13;;;;;;;26.66;43.54;96491.81;5061906;28;20199;-52
2023/10/13 12:30:35;;;;;;;9.63;3.20;;;;;;;26.64;44.62;96485.78;5061390;28;20647;-56
2023/10/13 12:33:08;;;;;;;3.17;2.65;;;;;;;26.61;45.79;96483.59;5061954;28;20221;-53
2023/10/13 12:35:44;;;;;;;4.25;2.58;;;;;;;26.77;47.93;96481.13;5061334;28;20202;-55
2023/10/13 12:38:36;;;;;;;4.63;2.55;;;;;;;26.81;44.15;96482.25;5062144;28;20202;-54
2023/10/13 12:49:49;;;;;;;8.27;4.45;;;;;;;26.62;43.82;96465.41;5069812;28;20252;-52
2023/10/13 12:52:19;;;;;;;6.28;3.58;;;;;;;26.71;45.23;96467.47;5067181;28;20218;-54
2023/10/13 12:54:47;;;;;;;6.65;2.95;;;;;;;26.71;43.64;96458.53;5066722;28;20210;-53
2023/10/13 12:57:14;;;;;;;5.57;2.85;;;;;;;26.63;42.08;96454.34;5063986;28;20233;-55
2023/10/13 12:59:40;;;;;;;5.13;3.25;;;;;;;26.65;42.63;96457.59;5062036;28;20297;-54
2023/10/13 13:02:14;;;;;;;4.40;3.25;;;;;;;26.69;42.90;96453.34;5061892;28;20215;-54
2023/10/13 13:04:43;;;;;;;5.43;2.80;;;;;;;26.60;40.31;96446.69;5062890;28;20202;-53
2023/10/13 13:07:13;;;;;;;5.85;3.05;;;;;;;26.58;40.44;96432.53;5061919;28;20293;-53
2023/10/13 13:09:41;;;;;;;4.05;2.75;;;;;;;26.64;40.08;96439.69;5062410;28;20289;-54
2023/10/13 13:12:07;;;;;;;9.05;3.00;;;;;;;26.53;40.38;96437.91;5062121;28;20199;-53
2023/10/13 13:14:34;;;;;;;3.35;2.53;;;;;;;26.57;41.24;96433.59;5061773;28;20217;-53
2023/10/13 13:17:04;;;;;;;3.85;2.58;;;;;;;26.57;38.31;96436.31;5061304;28;20207;-52
2023/10/13 13:19:33;;;;;;;4.40;3.00;;;;;;;26.45;39.86;96434.78;5060712;28;20211;-53
2023/10/13 13:22:00;;;;;;;5.93;3.10;;;;;;;26.43;38.68;96429.59;5061488;28;20295;-54
2023/10/13 13:24:29;;;;;;;3.40;2.70;;;;;;;26.31;39.89;96430.75;5061152;28;20203;-52
2023/10/13 13:27:02;;;;;;;3.83;2.90;;;;;;;26.28;40.81;96420.41;5062377;28;20203;-53
2023/10/13 13:29:29;;;;;;;3.58;2.72;;;;;;;26.23;38.50;96418.44;5061165;28;20257;-53
2023/10/13 13:31:56;;;;;;;4.88;2.83;;;;;;;26.18;40.57;96423.78;5061301;28;20208;-54
2023/10/13 13:34:22;;;;;;;5.97;2.88;;;;;;;26.20;39.21;96411.63;5060729;28;20221;-53
2023/10/13 13:36:52;;;;;;;4.60;2.90;;;;;;;26.21;36.33;96413.28;5061664;28;20344;-53
2023/10/13 13:39:28;;;;;;;4.88;2.50;;;;;;;26.11;37.86;96412.25;5062287;28;20228;-52
2023/10/13 13:41:56;;;;;;;2.83;2.33;;;;;;;26.04;38.07;96411.59;5061993;28;20202;-53
2023/10/13 13:44:29;;;;;;;4.78;2.80;;;;;;;25.92;38.38;96394.59;5061639;28;20210;-53
2023/10/13 13:46:57;;;;;;;5.43;2.70;;;;;;;25.95;38.01;96405.75;5062524;28;20574;-52
2023/10/13 13:49:29;;;;;;;4.78;2.50;;;;;;;25.91;37.21;96398.34;5064979;28;20203;-53